Terminal Aerodrome Forecast
Issued by NWS Blacksburg, VA

Home | Current Version | Previous Version | Text Only | Print | Product List | Glossary On
Versions: 1 2 3 4 5 6 7 8 9 10 11 12 13 14 15 16 17 18 19 20 21 22 23 24 25 26 27 28 29 30 31 32 33 34 35 36 37 38 39 40 41 42 43
000
FTUS41 KRNK 240846 AAA
TAFLYH
TAF AMD
KLYH 240846Z 2409/2506 00000KT 1 1/2SM +TSRA FEW024 SCT050 OVC060CB
     FM240915 29003KT 3SM BR VCSH OVC025
      TEMPO 2410/2411 1SM BR
     FM241300 34004KT P6SM SCT040 BKN100
     FM241700 VRB03KT P6SM VCTS BKN040CB
     FM242200 32005KT P6SM BKN050=

USA.gov is the U.S. government's official web portal to all federal, state and local government web resources and services.